首页
METAR-TAF:

METAR-TAF

机场 :

雅典, 喬治亞, 美国

纬度: 33-57-03N, 经度: 083-19-41W, 海拔: 246米

当前天气观测

该预报发布于27分钟前的22:51 UTC
风速7节,风向东转东南
温度 16°C
湿度 59%
气压 1020 hPa
能見度: 16.1公里
散云层高于9000英尺

METAR: KAHN 262251Z 12007KT 10SM SCT090 16/08 A3012 RMK AO2 SLP200 T01560078

时间: 19:18 (23:18 UTC)

预报

该预报发布于5小时和51分钟前的17:27 UTC
预报有效从26日的 18点(UTC)到 27日的 18点(UTC)
风速9节,风向东转东北
能見度: 10公里
多云层高于3500英尺
从 27日的 0200点(UTC)
风速7节,风向东转东北
能見度: 10公里
多云层高于7000英尺
从 27日的 0300点(UTC)
风速7节,风向东转东北
能見度: 10公里
散云层高于7000英尺
从 27日的 0900点(UTC)
风速7节,风向东转东北
能見度: 10公里
少量云层高于20000英尺

TAF: KAHN 261727Z 2618/2718 07009KT P6SM BKN035 FM270200 06007KT P6SM BKN070 FM270300 06007KT P6SM SCT070 FM270900 06007KT P6SM FEW200

超过4000个机场的气象观测和天气预报(METAR&TAF报告)。

可查询的气象台以黄色和红色小点在地图上表示。

将鼠标移到小点上方,可查看气象台名称。

然后点击查看天气观测和预报。

如需切换地图:点击带黑十字的绿色按钮放大地图;点击带横线的绿色按钮缩小地图;或者点击绿色箭头查看邻近地区的地图。


METAR-TAF: